sensor_id;sensor_type;location;lat;lon;timestamp;P1;durP1;ratioP1;P2;durP2;ratioP2
62149;SDS011;48134;53.586;10.610;2023-08-01T00:01:37;7.60;;;3.10;;
62149;SDS011;48134;53.586;10.610;2023-08-01T00:04:11;5.97;;;2.78;;
62149;SDS011;48134;53.586;10.610;2023-08-01T00:06:40;6.03;;;2.83;;
62149;SDS011;48134;53.586;10.610;2023-08-01T00:09:13;5.10;;;2.60;;
62149;SDS011;48134;53.586;10.610;2023-08-01T00:11:46;6.70;;;2.50;;
62149;SDS011;48134;53.586;10.610;2023-08-01T00:14:14;5.88;;;2.50;;
62149;SDS011;48134;53.586;10.610;2023-08-01T00:16:48;4.35;;;2.20;;
62149;SDS011;48134;53.586;10.610;2023-08-01T00:19:21;4.57;;;2.10;;
62149;SDS011;48134;53.586;10.610;2023-08-01T00:21:55;4.22;;;1.88;;
62149;SDS011;48134;53.586;10.610;2023-08-01T00:24:28;2.92;;;1.70;;
62149;SDS011;48134;53.586;10.610;2023-08-01T00:27:01;3.35;;;1.80;;
62149;SDS011;48134;53.586;10.610;2023-08-01T00:29:35;3.93;;;1.67;;
62149;SDS011;48134;53.586;10.610;2023-08-01T00:32:08;3.47;;;1.60;;
62149;SDS011;48134;53.586;10.610;2023-08-01T00:34:36;3.42;;;1.63;;
62149;SDS011;48134;53.586;10.610;2023-08-01T00:37:11;4.28;;;1.83;;
62149;SDS011;48134;53.586;10.610;2023-08-01T00:39:45;4.18;;;1.67;;
62149;SDS011;48134;53.586;10.610;2023-08-01T00:42:18;3.80;;;1.50;;
62149;SDS011;48134;53.586;10.610;2023-08-01T00:44:51;2.03;;;1.30;;
62149;SDS011;48134;53.586;10.610;2023-08-01T00:47:25;4.25;;;1.70;;
62149;SDS011;48134;53.586;10.610;2023-08-01T00:49:59;5.13;;;1.70;;
62149;SDS011;48134;53.586;10.610;2023-08-01T00:52:33;3.17;;;1.52;;
62149;SDS011;48134;53.586;10.610;2023-08-01T00:55:02;2.33;;;1.30;;
62149;SDS011;48134;53.586;10.610;2023-08-01T00:57:35;3.75;;;1.60;;
62149;SDS011;48134;53.586;10.610;2023-08-01T01:00:09;3.05;;;1.60;;
62149;SDS011;48134;53.586;10.610;2023-08-01T01:02:38;3.50;;;1.48;;
62149;SDS011;48134;53.586;10.610;2023-08-01T01:05:12;2.42;;;1.33;;
62149;SDS011;48134;53.586;10.610;2023-08-01T01:07:48;4.72;;;1.80;;
62149;SDS011;48134;53.586;10.610;2023-08-01T01:10:21;3.53;;;1.60;;
62149;SDS011;48134;53.586;10.610;2023-08-01T01:12:50;2.83;;;1.50;;
62149;SDS011;48134;53.586;10.610;2023-08-01T01:15:23;3.97;;;1.70;;
62149;SDS011;48134;53.586;10.610;2023-08-01T01:17:51;4.82;;;1.60;;
62149;SDS011;48134;53.586;10.610;2023-08-01T01:20:26;3.95;;;1.60;;
62149;SDS011;48134;53.586;10.610;2023-08-01T01:23:03;3.58;;;1.50;;
62149;SDS011;48134;53.586;10.610;2023-08-01T01:25:33;5.67;;;1.90;;
62149;SDS011;48134;53.586;10.610;2023-08-01T01:28:08;4.35;;;1.70;;
62149;SDS011;48134;53.586;10.610;2023-08-01T01:30:43;5.32;;;1.60;;
62149;SDS011;48134;53.586;10.610;2023-08-01T01:33:17;5.32;;;2.08;;
62149;SDS011;48134;53.586;10.610;2023-08-01T01:35:47;2.57;;;1.57;;
62149;SDS011;48134;53.586;10.610;2023-08-01T01:38:16;3.40;;;1.48;;
62149;SDS011;48134;53.586;10.610;2023-08-01T01:40:44;5.13;;;1.60;;
62149;SDS011;48134;53.586;10.610;2023-08-01T01:43:13;7.43;;;1.60;;
62149;SDS011;48134;53.586;10.610;2023-08-01T01:45:46;3.72;;;1.65;;
62149;SDS011;48134;53.586;10.610;2023-08-01T01:48:14;6.53;;;3.42;;
62149;SDS011;48134;53.586;10.610;2023-08-01T01:50:49;6.40;;;2.60;;
62149;SDS011;48134;53.586;10.610;2023-08-01T01:53:22;4.70;;;1.80;;
62149;SDS011;48134;53.586;10.610;2023-08-01T01:55:55;4.13;;;2.00;;
62149;SDS011;48134;53.586;10.610;2023-08-01T01:58:28;6.82;;;2.45;;
62149;SDS011;48134;53.586;10.610;2023-08-01T02:01:01;5.37;;;2.33;;
62149;SDS011;48134;53.586;10.610;2023-08-01T02:03:34;4.75;;;2.20;;
62149;SDS011;48134;53.586;10.610;2023-08-01T02:06:04;4.70;;;2.20;;
62149;SDS011;48134;53.586;10.610;2023-08-01T02:08:38;6.80;;;2.33;;
62149;SDS011;48134;53.586;10.610;2023-08-01T02:11:06;5.82;;;2.33;;
62149;SDS011;48134;53.586;10.610;2023-08-01T02:13:39;6.38;;;2.35;;
62149;SDS011;48134;53.586;10.610;2023-08-01T02:16:12;6.10;;;2.70;;
62149;SDS011;48134;53.586;10.610;2023-08-01T02:18:46;7.20;;;2.92;;
62149;SDS011;48134;53.586;10.610;2023-08-01T02:21:20;5.82;;;2.63;;
62149;SDS011;48134;53.586;10.610;2023-08-01T02:23:53;6.72;;;3.38;;
62149;SDS011;48134;53.586;10.610;2023-08-01T02:26:21;8.02;;;3.35;;
62149;SDS011;48134;53.586;10.610;2023-08-01T02:28:55;7.10;;;3.47;;
62149;SDS011;48134;53.586;10.610;2023-08-01T02:31:24;6.95;;;3.55;;
62149;SDS011;48134;53.586;10.610;2023-08-01T02:33:52;7.15;;;3.58;;
62149;SDS011;48134;53.586;10.610;2023-08-01T02:36:26;7.87;;;3.57;;
62149;SDS011;48134;53.586;10.610;2023-08-01T02:38:54;6.90;;;3.75;;
62149;SDS011;48134;53.586;10.610;2023-08-01T02:41:27;10.88;;;4.13;;
62149;SDS011;48134;53.586;10.610;2023-08-01T02:44:00;10.40;;;4.07;;
62149;SDS011;48134;53.586;10.610;2023-08-01T02:46:34;8.47;;;3.87;;
62149;SDS011;48134;53.586;10.610;2023-08-01T02:49:02;8.98;;;4.18;;
62149;SDS011;48134;53.586;10.610;2023-08-01T02:51:37;7.63;;;3.50;;
62149;SDS011;48134;53.586;10.610;2023-08-01T02:54:10;7.50;;;4.00;;
62149;SDS011;48134;53.586;10.610;2023-08-01T02:56:43;10.20;;;4.43;;
62149;SDS011;48134;53.586;10.610;2023-08-01T02:59:11;11.05;;;4.18;;
62149;SDS011;48134;53.586;10.610;2023-08-01T03:01:44;8.85;;;4.20;;
62149;SDS011;48134;53.586;10.610;2023-08-01T03:04:17;10.93;;;4.40;;
62149;SDS011;48134;53.586;10.610;2023-08-01T03:06:52;10.45;;;4.43;;
62149;SDS011;48134;53.586;10.610;2023-08-01T03:09:20;10.30;;;4.20;;
62149;SDS011;48134;53.586;10.610;2023-08-01T03:11:53;8.50;;;4.10;;
62149;SDS011;48134;53.586;10.610;2023-08-01T03:14:26;9.27;;;4.25;;
62149;SDS011;48134;53.586;10.610;2023-08-01T03:16:55;9.85;;;4.55;;
62149;SDS011;48134;53.586;10.610;2023-08-01T03:19:23;9.95;;;4.60;;
62149;SDS011;48134;53.586;10.610;2023-08-01T03:21:58;11.55;;;4.93;;
62149;SDS011;48134;53.586;10.610;2023-08-01T03:24:32;12.30;;;4.93;;
62149;SDS011;48134;53.586;10.610;2023-08-01T03:27:05;9.23;;;4.60;;
62149;SDS011;48134;53.586;10.610;2023-08-01T03:29:34;9.45;;;5.00;;
62149;SDS011;48134;53.586;10.610;2023-08-01T03:32:02;11.55;;;4.82;;
62149;SDS011;48134;53.586;10.610;2023-08-01T03:34:31;10.43;;;5.37;;
62149;SDS011;48134;53.586;10.610;2023-08-01T03:37:06;9.70;;;5.32;;
62149;SDS011;48134;53.586;10.610;2023-08-01T03:39:39;9.90;;;5.37;;
62149;SDS011;48134;53.586;10.610;2023-08-01T03:42:12;10.13;;;5.78;;
62149;SDS011;48134;53.586;10.610;2023-08-01T03:44:45;10.90;;;6.05;;
62149;SDS011;48134;53.586;10.610;2023-08-01T03:47:13;11.73;;;5.95;;
62149;SDS011;48134;53.586;10.610;2023-08-01T03:49:42;9.25;;;5.47;;
62149;SDS011;48134;53.586;10.610;2023-08-01T03:52:16;11.52;;;5.85;;
62149;SDS011;48134;53.586;10.610;2023-08-01T03:54:52;14.40;;;5.72;;
62149;SDS011;48134;53.586;10.610;2023-08-01T03:57:26;13.85;;;5.90;;
62149;SDS011;48134;53.586;10.610;2023-08-01T04:00:01;10.98;;;5.88;;
62149;SDS011;48134;53.586;10.610;2023-08-01T04:02:38;12.40;;;6.38;;
62149;SDS011;48134;53.586;10.610;2023-08-01T04:05:11;12.63;;;5.97;;
62149;SDS011;48134;53.586;10.610;2023-08-01T04:07:46;12.35;;;6.00;;
62149;SDS011;48134;53.586;10.610;2023-08-01T04:10:19;12.35;;;5.97;;
62149;SDS011;48134;53.586;10.610;2023-08-01T04:12:52;11.85;;;6.15;;
62149;SDS011;48134;53.586;10.610;2023-08-01T04:15:25;13.38;;;6.18;;
62149;SDS011;48134;53.586;10.610;2023-08-01T04:17:58;11.60;;;6.05;;
62149;SDS011;48134;53.586;10.610;2023-08-01T04:20:31;11.20;;;5.83;;
62149;SDS011;48134;53.586;10.610;2023-08-01T04:23:06;13.80;;;6.03;;
62149;SDS011;48134;53.586;10.610;2023-08-01T04:25:40;10.98;;;6.22;;
62149;SDS011;48134;53.586;10.610;2023-08-01T04:28:13;12.60;;;6.20;;
62149;SDS011;48134;53.586;10.610;2023-08-01T04:30:48;12.43;;;6.00;;
62149;SDS011;48134;53.586;10.610;2023-08-01T04:33:17;11.98;;;6.60;;
62149;SDS011;48134;53.586;10.610;2023-08-01T04:35:46;10.20;;;6.13;;
62149;SDS011;48134;53.586;10.610;2023-08-01T04:38:22;9.63;;;5.80;;
62149;SDS011;48134;53.586;10.610;2023-08-01T04:40:55;11.15;;;6.00;;
62149;SDS011;48134;53.586;10.610;2023-08-01T04:43:23;13.90;;;6.50;;
62149;SDS011;48134;53.586;10.610;2023-08-01T04:45:51;11.82;;;6.75;;
62149;SDS011;48134;53.586;10.610;2023-08-01T04:48:19;11.57;;;6.30;;
62149;SDS011;48134;53.586;10.610;2023-08-01T04:50:53;11.45;;;6.15;;
62149;SDS011;48134;53.586;10.610;2023-08-01T04:53:27;15.10;;;6.18;;
62149;SDS011;48134;53.586;10.610;2023-08-01T04:55:55;10.38;;;5.90;;
62149;SDS011;48134;53.586;10.610;2023-08-01T04:58:29;10.45;;;5.75;;
62149;SDS011;48134;53.586;10.610;2023-08-01T05:00:57;10.37;;;6.00;;
62149;SDS011;48134;53.586;10.610;2023-08-01T05:03:30;10.43;;;5.88;;
62149;SDS011;48134;53.586;10.610;2023-08-01T05:05:58;11.40;;;6.40;;
62149;SDS011;48134;53.586;10.610;2023-08-01T05:08:33;14.95;;;6.38;;
62149;SDS011;48134;53.586;10.610;2023-08-01T05:11:01;13.63;;;6.22;;
62149;SDS011;48134;53.586;10.610;2023-08-01T05:13:34;12.95;;;6.38;;
62149;SDS011;48134;53.586;10.610;2023-08-01T05:16:07;8.70;;;5.70;;
62149;SDS011;48134;53.586;10.610;2023-08-01T05:18:40;10.80;;;6.18;;
62149;SDS011;48134;53.586;10.610;2023-08-01T05:21:13;10.32;;;5.93;;
62149;SDS011;48134;53.586;10.610;2023-08-01T05:23:48;12.03;;;6.53;;
62149;SDS011;48134;53.586;10.610;2023-08-01T05:26:16;12.25;;;6.55;;
62149;SDS011;48134;53.586;10.610;2023-08-01T05:28:44;11.63;;;6.40;;
62149;SDS011;48134;53.586;10.610;2023-08-01T05:31:17;10.98;;;6.40;;
62149;SDS011;48134;53.586;10.610;2023-08-01T05:33:50;11.70;;;6.50;;
62149;SDS011;48134;53.586;10.610;2023-08-01T05:36:19;13.60;;;6.07;;
62149;SDS011;48134;53.586;10.610;2023-08-01T05:38:53;12.10;;;6.40;;
62149;SDS011;48134;53.586;10.610;2023-08-01T05:41:26;11.05;;;6.25;;
62149;SDS011;48134;53.586;10.610;2023-08-01T05:43:54;12.35;;;6.18;;
62149;SDS011;48134;53.586;10.610;2023-08-01T05:46:23;12.90;;;6.50;;
62149;SDS011;48134;53.586;10.610;2023-08-01T05:48:56;11.20;;;6.07;;
62149;SDS011;48134;53.586;10.610;2023-08-01T05:51:24;12.07;;;6.10;;
62149;SDS011;48134;53.586;10.610;2023-08-01T05:53:54;12.20;;;6.05;;
62149;SDS011;48134;53.586;10.610;2023-08-01T05:56:22;12.40;;;6.10;;
62149;SDS011;48134;53.586;10.610;2023-08-01T05:58:56;13.95;;;6.45;;
62149;SDS011;48134;53.586;10.610;2023-08-01T06:01:29;11.98;;;6.22;;
62149;SDS011;48134;53.586;10.610;2023-08-01T06:04:02;11.13;;;6.10;;
62149;SDS011;48134;53.586;10.610;2023-08-01T06:06:36;13.10;;;6.43;;
62149;SDS011;48134;53.586;10.610;2023-08-01T06:09:05;11.57;;;5.90;;
62149;SDS011;48134;53.586;10.610;2023-08-01T06:11:39;12.77;;;6.10;;
62149;SDS011;48134;53.586;10.610;2023-08-01T06:14:12;12.02;;;5.43;;
62149;SDS011;48134;53.586;10.610;2023-08-01T06:16:45;10.90;;;5.40;;
62149;SDS011;48134;53.586;10.610;2023-08-01T06:19:13;11.32;;;5.43;;
62149;SDS011;48134;53.586;10.610;2023-08-01T06:21:41;8.60;;;4.60;;
62149;SDS011;48134;53.586;10.610;2023-08-01T06:24:11;8.38;;;4.43;;
62149;SDS011;48134;53.586;10.610;2023-08-01T06:26:44;9.18;;;4.50;;
62149;SDS011;48134;53.586;10.610;2023-08-01T06:29:12;7.97;;;4.07;;
62149;SDS011;48134;53.586;10.610;2023-08-01T06:31:45;8.25;;;3.75;;
62149;SDS011;48134;53.586;10.610;2023-08-01T06:34:18;8.50;;;3.83;;
62149;SDS011;48134;53.586;10.610;2023-08-01T06:36:52;8.23;;;3.60;;
62149;SDS011;48134;53.586;10.610;2023-08-01T06:39:27;7.47;;;3.90;;
62149;SDS011;48134;53.586;10.610;2023-08-01T06:42:00;6.70;;;3.70;;
62149;SDS011;48134;53.586;10.610;2023-08-01T06:44:29;6.18;;;3.58;;
62149;SDS011;48134;53.586;10.610;2023-08-01T06:47:02;6.57;;;3.70;;
62149;SDS011;48134;53.586;10.610;2023-08-01T06:49:36;9.13;;;3.75;;
62149;SDS011;48134;53.586;10.610;2023-08-01T06:52:09;7.90;;;3.70;;
62149;SDS011;48134;53.586;10.610;2023-08-01T06:54:44;6.78;;;3.60;;
62149;SDS011;48134;53.586;10.610;2023-08-01T06:57:17;7.88;;;4.15;;
62149;SDS011;48134;53.586;10.610;2023-08-01T06:59:45;9.63;;;4.50;;
62149;SDS011;48134;53.586;10.610;2023-08-01T07:02:18;10.93;;;4.40;;
62149;SDS011;48134;53.586;10.610;2023-08-01T07:04:46;7.90;;;4.30;;
62149;SDS011;48134;53.586;10.610;2023-08-01T07:07:20;8.13;;;4.40;;
62149;SDS011;48134;53.586;10.610;2023-08-01T07:09:54;11.27;;;4.30;;
62149;SDS011;48134;53.586;10.610;2023-08-01T07:12:27;9.10;;;4.78;;
62149;SDS011;48134;53.586;10.610;2023-08-01T07:14:55;11.43;;;4.80;;
62149;SDS011;48134;53.586;10.610;2023-08-01T07:17:31;11.13;;;5.13;;
62149;SDS011;48134;53.586;10.610;2023-08-01T07:19:59;10.57;;;4.90;;
62149;SDS011;48134;53.586;10.610;2023-08-01T07:22:27;8.80;;;4.70;;
62149;SDS011;48134;53.586;10.610;2023-08-01T07:25:01;9.52;;;4.40;;
62149;SDS011;48134;53.586;10.610;2023-08-01T07:27:35;8.40;;;4.40;;
62149;SDS011;48134;53.586;10.610;2023-08-01T07:30:09;13.93;;;5.20;;
62149;SDS011;48134;53.586;10.610;2023-08-01T07:32:43;11.57;;;5.00;;
62149;SDS011;48134;53.586;10.610;2023-08-01T07:35:11;9.85;;;4.45;;
62149;SDS011;48134;53.586;10.610;2023-08-01T07:37:44;9.57;;;5.13;;
62149;SDS011;48134;53.586;10.610;2023-08-01T07:40:19;10.43;;;5.00;;
62149;SDS011;48134;53.586;10.610;2023-08-01T07:42:47;9.25;;;4.47;;
62149;SDS011;48134;53.586;10.610;2023-08-01T07:45:17;8.77;;;4.63;;
62149;SDS011;48134;53.586;10.610;2023-08-01T07:47:51;11.00;;;4.85;;
62149;SDS011;48134;53.586;10.610;2023-08-01T07:50:19;11.23;;;4.80;;
62149;SDS011;48134;53.586;10.610;2023-08-01T07:52:52;8.95;;;4.88;;
62149;SDS011;48134;53.586;10.610;2023-08-01T07:55:27;9.43;;;4.97;;
62149;SDS011;48134;53.586;10.610;2023-08-01T07:58:00;9.15;;;4.55;;
62149;SDS011;48134;53.586;10.610;2023-08-01T08:00:31;10.20;;;5.20;;
62149;SDS011;48134;53.586;10.610;2023-08-01T08:03:02;12.05;;;4.68;;
62149;SDS011;48134;53.586;10.610;2023-08-01T08:05:37;10.80;;;4.80;;
62149;SDS011;48134;53.586;10.610;2023-08-01T08:08:06;9.30;;;4.30;;
62149;SDS011;48134;53.586;10.610;2023-08-01T08:10:40;9.48;;;4.35;;
62149;SDS011;48134;53.586;10.610;2023-08-01T08:13:13;9.50;;;4.47;;
62149;SDS011;48134;53.586;10.610;2023-08-01T08:15:47;8.95;;;4.32;;
62149;SDS011;48134;53.586;10.610;2023-08-01T08:18:20;10.68;;;4.60;;
62149;SDS011;48134;53.586;10.610;2023-08-01T08:20:53;12.80;;;5.05;;
62149;SDS011;48134;53.586;10.610;2023-08-01T08:23:26;12.73;;;5.10;;
62149;SDS011;48134;53.586;10.610;2023-08-01T08:26:01;9.18;;;4.68;;
62149;SDS011;48134;53.586;10.610;2023-08-01T08:28:36;10.13;;;4.15;;
62149;SDS011;48134;53.586;10.610;2023-08-01T08:31:11;11.50;;;4.30;;
62149;SDS011;48134;53.586;10.610;2023-08-01T08:33:39;9.40;;;4.30;;
62149;SDS011;48134;53.586;10.610;2023-08-01T08:36:13;10.00;;;4.35;;
62149;SDS011;48134;53.586;10.610;2023-08-01T08:38:46;8.02;;;4.15;;
62149;SDS011;48134;53.586;10.610;2023-08-01T08:41:21;11.27;;;4.30;;
62149;SDS011;48134;53.586;10.610;2023-08-01T08:43:56;10.93;;;4.00;;
62149;SDS011;48134;53.586;10.610;2023-08-01T08:46:30;8.68;;;3.80;;
62149;SDS011;48134;53.586;10.610;2023-08-01T08:49:06;12.07;;;4.07;;
62149;SDS011;48134;53.586;10.610;2023-08-01T08:51:35;11.95;;;4.32;;
62149;SDS011;48134;53.586;10.610;2023-08-01T08:54:09;10.05;;;4.00;;
62149;SDS011;48134;53.586;10.610;2023-08-01T08:56:45;12.07;;;4.07;;
62149;SDS011;48134;53.586;10.610;2023-08-01T08:59:14;9.87;;;4.33;;
62149;SDS011;48134;53.586;10.610;2023-08-01T09:01:47;9.88;;;4.35;;
62149;SDS011;48134;53.586;10.610;2023-08-01T09:04:21;10.50;;;4.60;;
62149;SDS011;48134;53.586;10.610;2023-08-01T09:06:55;9.98;;;4.40;;
62149;SDS011;48134;53.586;10.610;2023-08-01T09:09:34;9.88;;;4.70;;
62149;SDS011;48134;53.586;10.610;2023-08-01T09:12:09;9.07;;;3.97;;
62149;SDS011;48134;53.586;10.610;2023-08-01T09:14:38;11.20;;;4.32;;
62149;SDS011;48134;53.586;10.610;2023-08-01T09:17:07;12.23;;;4.43;;
62149;SDS011;48134;53.586;10.610;2023-08-01T09:19:41;12.93;;;4.90;;
62149;SDS011;48134;53.586;10.610;2023-08-01T09:22:17;11.07;;;4.80;;
62149;SDS011;48134;53.586;10.610;2023-08-01T09:24:50;9.70;;;4.63;;
62149;SDS011;48134;53.586;10.610;2023-08-01T09:27:32;9.00;;;4.27;;
62149;SDS011;48134;53.586;10.610;2023-08-01T09:30:07;11.40;;;4.68;;
62149;SDS011;48134;53.586;10.610;2023-08-01T09:32:50;12.65;;;4.80;;
62149;SDS011;48134;53.586;10.610;2023-08-01T09:35:24;11.85;;;4.47;;
62149;SDS011;48134;53.586;10.610;2023-08-01T09:37:52;9.20;;;4.68;;
62149;SDS011;48134;53.586;10.610;2023-08-01T09:40:35;9.17;;;4.40;;
62149;SDS011;48134;53.586;10.610;2023-08-01T09:43:10;8.93;;;4.30;;
62149;SDS011;48134;53.586;10.610;2023-08-01T09:45:51;10.65;;;4.43;;
62149;SDS011;48134;53.586;10.610;2023-08-01T09:48:25;10.88;;;4.07;;
62149;SDS011;48134;53.586;10.610;2023-08-01T09:51:08;9.48;;;4.30;;
62149;SDS011;48134;53.586;10.610;2023-08-01T09:53:46;8.88;;;4.07;;
62149;SDS011;48134;53.586;10.610;2023-08-01T09:56:18;9.35;;;4.35;;
62149;SDS011;48134;53.586;10.610;2023-08-01T09:58:55;8.13;;;3.95;;
62149;SDS011;48134;53.586;10.610;2023-08-01T10:01:29;8.23;;;4.20;;
62149;SDS011;48134;53.586;10.610;2023-08-01T10:04:04;11.05;;;5.03;;
62149;SDS011;48134;53.586;10.610;2023-08-01T10:06:41;7.90;;;4.10;;
62149;SDS011;48134;53.586;10.610;2023-08-01T10:09:19;9.93;;;4.40;;
62149;SDS011;48134;53.586;10.610;2023-08-01T10:11:56;9.68;;;4.57;;
62149;SDS011;48134;53.586;10.610;2023-08-01T10:14:31;9.93;;;4.78;;
62149;SDS011;48134;53.586;10.610;2023-08-01T10:17:05;9.55;;;4.55;;
62149;SDS011;48134;53.586;10.610;2023-08-01T10:19:34;9.83;;;4.63;;
62149;SDS011;48134;53.586;10.610;2023-08-01T10:22:03;8.02;;;4.45;;
62149;SDS011;48134;53.586;10.610;2023-08-01T10:24:38;7.95;;;3.92;;
62149;SDS011;48134;53.586;10.610;2023-08-01T10:27:13;7.50;;;3.20;;
62149;SDS011;48134;53.586;10.610;2023-08-01T10:29:57;6.68;;;2.80;;
62149;SDS011;48134;53.586;10.610;2023-08-01T10:32:31;5.65;;;2.55;;
62149;SDS011;48134;53.586;10.610;2023-08-01T10:35:00;5.13;;;2.50;;
62149;SDS011;48134;53.586;10.610;2023-08-01T10:37:40;4.83;;;2.17;;
62149;SDS011;48134;53.586;10.610;2023-08-01T10:40:14;7.13;;;2.35;;
62149;SDS011;48134;53.586;10.610;2023-08-01T10:42:47;5.47;;;2.55;;
62149;SDS011;48134;53.586;10.610;2023-08-01T10:45:21;4.30;;;2.50;;
62149;SDS011;48134;53.586;10.610;2023-08-01T10:48:05;4.85;;;2.10;;
62149;SDS011;48134;53.586;10.610;2023-08-01T10:50:34;5.72;;;1.90;;
62149;SDS011;48134;53.586;10.610;2023-08-01T10:53:09;7.82;;;2.40;;
62149;SDS011;48134;53.586;10.610;2023-08-01T10:55:41;5.70;;;1.98;;
62149;SDS011;48134;53.586;10.610;2023-08-01T10:58:10;6.13;;;2.10;;
62149;SDS011;48134;53.586;10.610;2023-08-01T11:00:45;5.70;;;2.10;;
62149;SDS011;48134;53.586;10.610;2023-08-01T11:03:18;4.55;;;1.98;;
62149;SDS011;48134;53.586;10.610;2023-08-01T11:05:56;5.07;;;2.03;;
62149;SDS011;48134;53.586;10.610;2023-08-01T11:08:33;4.38;;;2.10;;
62149;SDS011;48134;53.586;10.610;2023-08-01T11:11:07;3.58;;;1.80;;
62149;SDS011;48134;53.586;10.610;2023-08-01T11:13:49;4.55;;;2.22;;
62149;SDS011;48134;53.586;10.610;2023-08-01T11:16:20;3.63;;;2.00;;
62149;SDS011;48134;53.586;10.610;2023-08-01T11:18:48;5.32;;;2.40;;
62149;SDS011;48134;53.586;10.610;2023-08-01T11:21:24;5.53;;;2.13;;
62149;SDS011;48134;53.586;10.610;2023-08-01T11:23:59;5.15;;;2.05;;
62149;SDS011;48134;53.586;10.610;2023-08-01T11:26:32;6.00;;;2.30;;
62149;SDS011;48134;53.586;10.610;2023-08-01T11:29:01;4.50;;;1.80;;
62149;SDS011;48134;53.586;10.610;2023-08-01T11:31:36;4.30;;;1.83;;
62149;SDS011;48134;53.586;10.610;2023-08-01T11:34:09;8.35;;;3.58;;
62149;SDS011;48134;53.586;10.610;2023-08-01T11:36:43;6.00;;;2.40;;
62149;SDS011;48134;53.586;10.610;2023-08-01T11:39:13;8.90;;;4.10;;
62149;SDS011;48134;53.586;10.610;2023-08-01T11:41:47;4.60;;;1.65;;
62149;SDS011;48134;53.586;10.610;2023-08-01T11:44:16;5.43;;;2.15;;
62149;SDS011;48134;53.586;10.610;2023-08-01T11:46:45;3.83;;;1.70;;
62149;SDS011;48134;53.586;10.610;2023-08-01T11:49:16;10.20;;;1.80;;
62149;SDS011;48134;53.586;10.610;2023-08-01T11:51:45;2.88;;;1.65;;
62149;SDS011;48134;53.586;10.610;2023-08-01T11:54:13;5.25;;;1.60;;
62149;SDS011;48134;53.586;10.610;2023-08-01T11:56:42;4.78;;;1.35;;
62149;SDS011;48134;53.586;10.610;2023-08-01T11:59:16;3.58;;;1.40;;
62149;SDS011;48134;53.586;10.610;2023-08-01T12:01:51;4.67;;;1.47;;
62149;SDS011;48134;53.586;10.610;2023-08-01T12:04:25;4.65;;;1.30;;
62149;SDS011;48134;53.586;10.610;2023-08-01T12:06:59;5.05;;;1.30;;
62149;SDS011;48134;53.586;10.610;2023-08-01T12:09:33;4.47;;;1.30;;
62149;SDS011;48134;53.586;10.610;2023-08-01T12:12:06;3.22;;;1.30;;
62149;SDS011;48134;53.586;10.610;2023-08-01T12:14:39;3.33;;;1.08;;
62149;SDS011;48134;53.586;10.610;2023-08-01T12:17:09;2.80;;;1.00;;
62149;SDS011;48134;53.586;10.610;2023-08-01T12:19:37;2.97;;;1.10;;
62149;SDS011;48134;53.586;10.610;2023-08-01T12:22:05;2.70;;;1.00;;
62149;SDS011;48134;53.586;10.610;2023-08-01T12:24:38;2.42;;;0.93;;
62149;SDS011;48134;53.586;10.610;2023-08-01T12:27:07;4.27;;;1.20;;
62149;SDS011;48134;53.586;10.610;2023-08-01T12:29:36;3.55;;;1.20;;
62149;SDS011;48134;53.586;10.610;2023-08-01T12:32:04;3.40;;;1.10;;
62149;SDS011;48134;53.586;10.610;2023-08-01T12:34:35;2.45;;;1.00;;
62149;SDS011;48134;53.586;10.610;2023-08-01T12:37:08;3.47;;;1.00;;
62149;SDS011;48134;53.586;10.610;2023-08-01T12:39:36;2.47;;;0.95;;
62149;SDS011;48134;53.586;10.610;2023-08-01T12:42:10;2.63;;;1.20;;
62149;SDS011;48134;53.586;10.610;2023-08-01T12:44:43;2.83;;;0.90;;
62149;SDS011;48134;53.586;10.610;2023-08-01T12:47:16;2.17;;;1.00;;
62149;SDS011;48134;53.586;10.610;2023-08-01T12:49:46;3.25;;;1.20;;
62149;SDS011;48134;53.586;10.610;2023-08-01T12:52:22;4.13;;;1.20;;
62149;SDS011;48134;53.586;10.610;2023-08-01T12:54:51;4.80;;;1.33;;
62149;SDS011;48134;53.586;10.610;2023-08-01T12:57:19;1.85;;;1.00;;
62149;SDS011;48134;53.586;10.610;2023-08-01T12:59:52;2.63;;;1.00;;
62149;SDS011;48134;53.586;10.610;2023-08-01T13:02:26;2.80;;;1.02;;
62149;SDS011;48134;53.586;10.610;2023-08-01T13:04:55;1.70;;;1.00;;
62149;SDS011;48134;53.586;10.610;2023-08-01T13:07:29;3.83;;;0.90;;
62149;SDS011;48134;53.586;10.610;2023-08-01T13:10:03;2.13;;;0.95;;
62149;SDS011;48134;53.586;10.610;2023-08-01T13:12:37;1.90;;;0.90;;
62149;SDS011;48134;53.586;10.610;2023-08-01T13:15:10;1.45;;;1.00;;
62149;SDS011;48134;53.586;10.610;2023-08-01T13:17:38;2.60;;;1.00;;
62149;SDS011;48134;53.586;10.610;2023-08-01T13:20:08;1.60;;;0.97;;
62149;SDS011;48134;53.586;10.610;2023-08-01T13:22:37;2.03;;;1.00;;
62149;SDS011;48134;53.586;10.610;2023-08-01T13:25:05;1.40;;;0.95;;
62149;SDS011;48134;53.586;10.610;2023-08-01T13:27:34;4.40;;;1.20;;
62149;SDS011;48134;53.586;10.610;2023-08-01T13:30:07;5.60;;;1.20;;
62149;SDS011;48134;53.586;10.610;2023-08-01T13:32:38;3.60;;;1.08;;
62149;SDS011;48134;53.586;10.610;2023-08-01T13:35:08;6.05;;;2.85;;
62149;SDS011;48134;53.586;10.610;2023-08-01T13:37:41;2.53;;;1.35;;
62149;SDS011;48134;53.586;10.610;2023-08-01T13:40:14;2.75;;;1.25;;
62149;SDS011;48134;53.586;10.610;2023-08-01T13:42:47;2.58;;;1.40;;
62149;SDS011;48134;53.586;10.610;2023-08-01T13:45:15;1.80;;;1.10;;
62149;SDS011;48134;53.586;10.610;2023-08-01T13:47:48;1.35;;;1.05;;
62149;SDS011;48134;53.586;10.610;2023-08-01T13:50:18;2.80;;;1.40;;
62149;SDS011;48134;53.586;10.610;2023-08-01T13:52:51;4.03;;;1.40;;
62149;SDS011;48134;53.586;10.610;2023-08-01T13:55:24;2.35;;;1.20;;
62149;SDS011;48134;53.586;10.610;2023-08-01T13:57:58;2.83;;;1.43;;
62149;SDS011;48134;53.586;10.610;2023-08-01T14:00:26;2.13;;;1.20;;
62149;SDS011;48134;53.586;10.610;2023-08-01T14:02:54;3.45;;;1.30;;
62149;SDS011;48134;53.586;10.610;2023-08-01T14:05:25;4.47;;;1.30;;
62149;SDS011;48134;53.586;10.610;2023-08-01T14:07:58;4.40;;;1.40;;
62149;SDS011;48134;53.586;10.610;2023-08-01T14:10:28;2.30;;;1.30;;
62149;SDS011;48134;53.586;10.610;2023-08-01T14:12:57;3.80;;;1.20;;
62149;SDS011;48134;53.586;10.610;2023-08-01T14:15:30;3.85;;;1.65;;
62149;SDS011;48134;53.586;10.610;2023-08-01T14:18:03;2.67;;;1.10;;
62149;SDS011;48134;53.586;10.610;2023-08-01T14:20:37;3.28;;;1.20;;
62149;SDS011;48134;53.586;10.610;2023-08-01T14:23:05;2.20;;;1.25;;
62149;SDS011;48134;53.586;10.610;2023-08-01T14:25:35;4.07;;;1.25;;
62149;SDS011;48134;53.586;10.610;2023-08-01T14:28:08;4.40;;;1.73;;
62149;SDS011;48134;53.586;10.610;2023-08-01T14:30:43;4.27;;;1.73;;
62149;SDS011;48134;53.586;10.610;2023-08-01T14:33:11;4.00;;;1.50;;
62149;SDS011;48134;53.586;10.610;2023-08-01T14:35:42;4.93;;;1.52;;
62149;SDS011;48134;53.586;10.610;2023-08-01T14:38:15;4.63;;;1.50;;
62149;SDS011;48134;53.586;10.610;2023-08-01T14:40:44;3.07;;;1.50;;
62149;SDS011;48134;53.586;10.610;2023-08-01T14:43:17;3.60;;;1.50;;
62149;SDS011;48134;53.586;10.610;2023-08-01T14:45:45;4.63;;;1.73;;
62149;SDS011;48134;53.586;10.610;2023-08-01T14:48:18;4.05;;;1.67;;
62149;SDS011;48134;53.586;10.610;2023-08-01T14:50:48;2.33;;;1.50;;
62149;SDS011;48134;53.586;10.610;2023-08-01T14:53:22;3.93;;;1.73;;
62149;SDS011;48134;53.586;10.610;2023-08-01T14:55:55;4.35;;;1.50;;
62149;SDS011;48134;53.586;10.610;2023-08-01T14:58:29;4.53;;;1.40;;
62149;SDS011;48134;53.586;10.610;2023-08-01T15:00:57;4.47;;;1.50;;